createdAt,value
2018-04-15T00:00:31.874Z,95.41
2018-04-15T00:01:32.094Z,95.32
2018-04-15T00:02:32.301Z,95.32
2018-04-15T00:03:32.514Z,95.51
2018-04-15T00:04:34.286Z,95.32
2018-04-15T00:05:32.862Z,95.70
2018-04-15T00:06:33.079Z,95.79
2018-04-15T00:07:33.311Z,95.51
2018-04-15T00:08:35.055Z,95.41
2018-04-15T00:09:33.650Z,95.41
2018-04-15T00:10:33.856Z,95.41
2018-04-15T00:11:34.068Z,95.32
2018-04-15T00:12:34.283Z,95.61
2018-04-15T00:13:36.289Z,95.51
2018-04-15T00:14:34.617Z,95.51
2018-04-15T00:15:34.824Z,95.32
2018-04-15T00:16:36.781Z,95.22
2018-04-15T00:17:35.242Z,94.93
2018-04-15T00:18:35.456Z,95.22
2018-04-15T00:19:35.677Z,94.74
2018-04-15T00:20:37.782Z,94.93
2018-04-15T00:21:36.120Z,95.12
2018-04-15T00:22:36.323Z,95.03
2018-04-15T00:23:36.539Z,95.12
2018-04-15T00:24:36.744Z,94.93
2018-04-15T00:25:36.968Z,94.74
2018-04-15T00:26:37.168Z,95.51
2018-04-15T00:27:37.380Z,95.61
2018-04-15T00:28:37.585Z,95.32
2018-04-15T00:29:37.796Z,95.41
2018-04-15T00:30:38.002Z,95.03
2018-04-15T00:31:38.216Z,94.46
2018-04-15T00:32:38.421Z,94.93
2018-04-15T00:33:38.636Z,94.17
2018-04-15T00:34:38.888Z,93.79
2018-04-15T00:35:39.056Z,93.88
2018-04-15T00:36:39.268Z,93.88
2018-04-15T00:37:39.484Z,94.17
2018-04-15T00:38:39.695Z,94.08
2018-04-15T00:39:39.913Z,93.79
2018-04-15T00:40:40.129Z,94.17
2018-04-15T00:41:40.338Z,94.56
2018-04-15T00:42:40.569Z,94.93
2018-04-15T00:43:40.784Z,94.74
2018-04-15T00:44:41.031Z,94.74
2018-04-15T00:45:41.201Z,94.56
2018-04-15T00:46:43.284Z,94.27
2018-04-15T00:47:41.622Z,93.70
2018-04-15T00:48:43.788Z,94.65
2018-04-15T00:49:43.783Z,95.32
2018-04-15T00:50:42.130Z,95.41
2018-04-15T00:51:42.340Z,95.12
2018-04-15T00:52:43.563Z,95.03
2018-04-15T00:53:42.769Z,95.41
2018-04-15T00:54:42.984Z,95.61
2018-04-15T00:55:43.191Z,95.12
2018-04-15T00:56:43.408Z,95.03
2018-04-15T00:57:43.617Z,95.32
2018-04-15T00:58:43.832Z,95.22
2018-04-15T00:59:44.044Z,94.46
2018-04-15T01:00:44.258Z,94.65
2018-04-15T01:01:46.304Z,94.56
2018-04-15T01:02:46.298Z,94.84
2018-04-15T01:03:44.739Z,95.51
2018-04-15T01:04:44.956Z,95.41
2018-04-15T01:05:45.157Z,95.70
2018-04-15T01:06:45.387Z,95.70
2018-04-15T01:07:45.584Z,96.36
2018-04-15T01:08:45.823Z,96.56
2018-04-15T01:09:46.043Z,96.08
2018-04-15T01:10:46.248Z,96.17
2018-04-15T01:11:46.473Z,95.98
2018-04-15T01:12:46.681Z,95.70
2018-04-15T01:13:46.881Z,95.89
2018-04-15T01:14:47.112Z,95.41
2018-04-15T01:15:47.305Z,94.93
2018-04-15T01:16:47.517Z,95.41
2018-04-15T01:17:49.282Z,95.22
2018-04-15T01:18:47.890Z,95.22
2018-04-15T01:19:48.088Z,95.51
2018-04-15T01:20:49.826Z,95.98
2018-04-15T01:21:48.507Z,95.51
2018-04-15T01:22:50.306Z,95.98
2018-04-15T01:23:48.870Z,96.32
2018-04-15T01:24:49.076Z,96.32
2018-04-15T01:25:49.290Z,96.41
2018-04-15T01:26:49.504Z,97.27
2018-04-15T01:27:51.288Z,97.08
2018-04-15T01:28:49.875Z,96.80
2018-04-15T01:29:50.094Z,97.08
2018-04-15T01:30:50.303Z,97.17
2018-04-15T01:31:52.292Z,97.08
2018-04-15T01:32:50.753Z,96.89
2018-04-15T01:33:50.961Z,97.17
2018-04-15T01:34:51.176Z,96.89
2018-04-15T01:35:53.285Z,96.89
2018-04-15T01:36:51.631Z,97.46
2018-04-15T01:37:51.844Z,98.13
2018-04-15T01:38:52.055Z,97.84
2018-04-15T01:39:52.272Z,97.94
2018-04-15T01:40:52.473Z,96.98
2018-04-15T01:41:54.299Z,96.98
2018-04-15T01:42:52.891Z,96.70
2018-04-15T01:43:53.096Z,96.32
2018-04-15T01:44:53.331Z,96.03
2018-04-15T01:45:55.293Z,96.70
2018-04-15T01:46:53.755Z,96.32
2018-04-15T01:47:55.793Z,95.75
2018-04-15T01:48:54.125Z,95.94
2018-04-15T01:49:55.837Z,96.32
2018-04-15T01:50:54.558Z,96.41
2018-04-15T01:51:54.760Z,96.32
2018-04-15T01:52:54.976Z,96.03
2018-04-15T01:53:55.191Z,96.41
2018-04-15T01:54:55.399Z,96.32
2018-04-15T01:55:55.603Z,97.08
2018-04-15T01:56:55.816Z,97.27
2018-04-15T01:57:56.018Z,96.98
2018-04-15T01:58:56.230Z,96.98
2018-04-15T01:59:58.288Z,96.89
2018-04-15T02:00:59.285Z,97.36
2018-04-15T02:01:56.754Z,97.27
2018-04-15T02:02:56.965Z,97.46
2018-04-15T02:03:57.181Z,97.17
2018-04-15T02:04:57.395Z,97.27
2018-04-15T02:05:57.610Z,96.22
2018-04-15T02:06:57.830Z,96.32
2018-04-15T02:07:58.053Z,96.12
2018-04-15T02:08:58.255Z,96.41
2018-04-15T02:09:58.472Z,96.32
2018-04-15T02:10:58.687Z,95.46
2018-04-15T02:11:58.882Z,95.94
2018-04-15T02:12:59.094Z,95.84
2018-04-15T02:13:59.310Z,95.46
2018-04-15T02:14:59.513Z,95.36
2018-04-15T02:15:59.726Z,95.46
2018-04-15T02:16:59.933Z,95.61
2018-04-15T02:18:00.151Z,95.46
2018-04-15T02:19:00.361Z,95.36
2018-04-15T02:20:00.570Z,95.56
2018-04-15T02:21:00.792Z,95.56
2018-04-15T02:22:01.000Z,95.56
2018-04-15T02:23:02.789Z,95.36
2018-04-15T02:24:01.387Z,95.84
2018-04-15T02:25:01.587Z,95.56
2018-04-15T02:26:01.796Z,95.84
2018-04-15T02:27:02.000Z,95.79
2018-04-15T02:28:03.794Z,95.41
2018-04-15T02:29:02.387Z,95.36
2018-04-15T02:30:02.598Z,95.84
2018-04-15T02:31:02.811Z,95.75
2018-04-15T02:32:04.797Z,96.03
2018-04-15T02:33:03.253Z,96.03
2018-04-15T02:34:03.464Z,96.12
2018-04-15T02:35:03.690Z,95.36
2018-04-15T02:36:03.945Z,95.36
2018-04-15T02:37:04.131Z,95.36
2018-04-15T02:38:04.343Z,95.22
2018-04-15T02:39:04.546Z,95.17
2018-04-15T02:40:06.291Z,94.79
2018-04-15T02:41:04.868Z,95.36
2018-04-15T02:42:05.075Z,94.79
2018-04-15T02:43:05.338Z,94.79
2018-04-15T02:44:05.509Z,94.79
2018-04-15T02:45:05.713Z,94.98
2018-04-15T02:46:05.939Z,94.70
2018-04-15T02:47:06.157Z,94.98
2018-04-15T02:48:08.291Z,94.89
2018-04-15T02:49:06.511Z,94.32
2018-04-15T02:50:06.721Z,95.08
2018-04-15T02:51:08.797Z,95.84
2018-04-15T02:52:07.132Z,95.36
2018-04-15T02:53:07.351Z,95.17
2018-04-15T02:54:07.566Z,95.94
2018-04-15T02:55:08.585Z,95.56
2018-04-15T02:56:07.937Z,95.84
2018-04-15T02:57:08.147Z,95.65
2018-04-15T02:58:08.361Z,95.84
2018-04-15T02:59:08.579Z,95.94
2018-04-15T03:00:08.791Z,95.84
2018-04-15T03:01:12.883Z,95.84
2018-04-15T03:02:09.213Z,95.84
2018-04-15T03:03:09.420Z,96.60
2018-04-15T03:04:09.638Z,96.17
2018-04-15T03:05:09.850Z,96.36
2018-04-15T03:06:10.054Z,96.22
2018-04-15T03:07:10.308Z,96.89
2018-04-15T03:08:10.487Z,97.89
2018-04-15T03:09:10.690Z,97.89
2018-04-15T03:10:10.897Z,98.36
2018-04-15T03:11:11.138Z,98.65
2018-04-15T03:12:14.295Z,98.36
2018-04-15T03:13:11.515Z,98.46
2018-04-15T03:14:11.721Z,98.46
2018-04-15T03:15:11.928Z,98.36
2018-04-15T03:16:12.143Z,97.70
2018-04-15T03:17:12.365Z,97.89
2018-04-15T03:18:12.575Z,98.18
2018-04-15T03:19:12.793Z,97.51
2018-04-15T03:20:13.002Z,98.08
2018-04-15T03:21:14.799Z,97.60
2018-04-15T03:22:13.397Z,97.99
2018-04-15T03:23:13.593Z,97.79
2018-04-15T03:24:13.805Z,97.51
2018-04-15T03:25:14.042Z,97.51
2018-04-15T03:26:14.253Z,97.60
2018-04-15T03:27:14.454Z,97.99
2018-04-15T03:28:14.667Z,98.36
2018-04-15T03:29:14.885Z,98.55
2018-04-15T03:30:15.130Z,97.70
2018-04-15T03:31:15.538Z,98.08
2018-04-15T03:32:15.421Z,96.65
2018-04-15T03:33:15.532Z,97.31
2018-04-15T03:34:15.646Z,97.89
2018-04-15T03:35:15.858Z,98.36
2018-04-15T03:36:17.807Z,98.74
2018-04-15T03:37:16.280Z,98.74
2018-04-15T03:38:16.629Z,98.94
2018-04-15T03:39:16.676Z,98.74
2018-04-15T03:40:18.315Z,98.94
2018-04-15T03:41:16.900Z,99.51
2018-04-15T03:42:17.111Z,99.79
2018-04-15T03:43:17.309Z,99.51
2018-04-15T03:44:17.528Z,99.41
2018-04-15T03:45:22.513Z,99.41
2018-04-15T03:46:17.841Z,99.69
2018-04-15T03:47:19.791Z,99.79
2018-04-15T03:48:18.271Z,99.79
2018-04-15T03:49:18.474Z,99.60
2018-04-15T03:50:18.693Z,99.51
2018-04-15T03:51:21.808Z,99.99
2018-04-15T03:52:19.032Z,99.99
2018-04-15T03:53:19.248Z,99.89
2018-04-15T03:54:21.291Z,99.32
2018-04-15T03:55:19.629Z,99.13
2018-04-15T03:56:19.838Z,99.13
2018-04-15T03:57:20.076Z,99.41
2018-04-15T03:58:20.264Z,99.13
2018-04-15T03:59:20.477Z,99.22
2018-04-15T04:00:22.307Z,98.84
2018-04-15T04:01:20.914Z,98.74
2018-04-15T04:02:21.140Z,98.46
2018-04-15T04:03:21.353Z,98.36
2018-04-15T04:04:21.560Z,98.36
2018-04-15T04:05:21.777Z,98.27
2018-04-15T04:06:22.009Z,98.36
2018-04-15T04:07:22.203Z,98.55
2018-04-15T04:08:22.416Z,98.94
2018-04-15T04:09:23.406Z,98.74
2018-04-15T04:10:24.491Z,99.22
2018-04-15T04:11:22.953Z,99.32
2018-04-15T04:12:23.153Z,99.60
2018-04-15T04:13:23.368Z,99.99
2018-04-15T04:14:23.585Z,99.99
2018-04-15T04:15:23.784Z,99.93
2018-04-15T04:16:24.001Z,99.99
2018-04-15T04:17:24.208Z,99.99
2018-04-15T04:18:24.419Z,99.99
2018-04-15T04:19:24.635Z,99.99
2018-04-15T04:20:24.859Z,99.79
2018-04-15T04:21:25.061Z,99.65
2018-04-15T04:22:25.256Z,99.13
2018-04-15T04:23:25.460Z,99.41
2018-04-15T04:24:25.682Z,99.41
2018-04-15T04:25:25.885Z,99.03
2018-04-15T04:26:26.107Z,98.98
2018-04-15T04:27:26.317Z,99.17
2018-04-15T04:28:26.581Z,99.27
2018-04-15T04:29:26.756Z,99.36
2018-04-15T04:30:26.891Z,99.08
2018-04-15T04:31:27.062Z,99.27
2018-04-15T04:32:27.282Z,98.98
2018-04-15T04:33:27.495Z,99.08
2018-04-15T04:34:27.705Z,98.88
2018-04-15T04:35:27.922Z,98.88
2018-04-15T04:36:28.160Z,98.88
2018-04-15T04:37:28.356Z,98.74
2018-04-15T04:38:28.588Z,98.69
2018-04-15T04:39:30.043Z,98.98
2018-04-15T04:40:29.906Z,98.18
2018-04-15T04:41:30.135Z,98.55
2018-04-15T04:42:32.299Z,98.27
2018-04-15T04:43:29.500Z,98.74
2018-04-15T04:44:29.699Z,98.74
2018-04-15T04:45:29.919Z,99.03
2018-04-15T04:46:30.127Z,99.51
2018-04-15T04:47:32.290Z,99.99
2018-04-15T04:48:30.505Z,99.99
2018-04-15T04:49:30.705Z,99.99
2018-04-15T04:50:32.791Z,99.99
2018-04-15T04:51:31.122Z,99.99
2018-04-15T04:52:33.289Z,99.99
2018-04-15T04:53:31.509Z,99.99
2018-04-15T04:54:31.737Z,99.99
2018-04-15T04:55:31.936Z,99.99
2018-04-15T04:56:32.045Z,99.99
2018-04-15T04:57:32.257Z,99.99
2018-04-15T04:58:32.471Z,99.99
2018-04-15T04:59:32.682Z,99.99
2018-04-15T05:00:32.898Z,99.99
2018-04-15T05:01:33.106Z,99.99
2018-04-15T05:02:33.324Z,99.99
2018-04-15T05:03:33.536Z,99.99
2018-04-15T05:04:33.750Z,99.99
2018-04-15T05:05:33.950Z,99.99
2018-04-15T05:06:34.274Z,99.99
2018-04-15T05:07:34.301Z,99.99
2018-04-15T05:08:34.522Z,99.99
2018-04-15T05:09:34.729Z,99.99
2018-04-15T05:10:36.794Z,99.99
2018-04-15T05:11:35.168Z,99.99
2018-04-15T05:12:36.791Z,99.99
2018-04-15T05:13:35.370Z,99.99
2018-04-15T05:14:35.591Z,99.99
2018-04-15T05:15:35.799Z,99.99
2018-04-15T05:16:36.011Z,99.99
2018-04-15T05:17:36.242Z,99.99
2018-04-15T05:18:37.710Z,99.99
2018-04-15T05:19:36.689Z,99.99
2018-04-15T05:20:36.904Z,99.99
2018-04-15T05:21:37.123Z,99.99
2018-04-15T05:22:37.332Z,99.99
2018-04-15T05:23:37.535Z,99.99
2018-04-15T05:24:37.756Z,99.99
2018-04-15T05:25:37.978Z,99.99
2018-04-15T05:26:38.189Z,99.99
2018-04-15T05:27:38.577Z,99.99
2018-04-15T05:28:38.616Z,99.99
2018-04-15T05:29:38.828Z,99.99
2018-04-15T05:30:39.048Z,99.99
2018-04-15T05:31:39.250Z,99.99
2018-04-15T05:32:39.469Z,99.99
2018-04-15T05:33:39.671Z,99.99
2018-04-15T05:34:39.881Z,99.99
2018-04-15T05:35:40.101Z,99.99
2018-04-15T05:36:40.331Z,99.99
2018-04-15T05:37:40.514Z,99.99
2018-04-15T05:38:40.716Z,99.99
2018-04-15T05:39:40.932Z,99.99
2018-04-15T05:40:41.153Z,99.99
2018-04-15T05:41:41.352Z,99.99
2018-04-15T05:42:41.591Z,99.99
2018-04-15T05:43:41.786Z,99.99
2018-04-15T05:44:41.988Z,99.99
2018-04-15T05:45:42.197Z,99.99
2018-04-15T05:46:42.415Z,99.99
2018-04-15T05:47:42.635Z,99.94
2018-04-15T05:48:42.838Z,99.08
2018-04-15T05:49:43.053Z,98.46
2018-04-15T05:50:43.254Z,98.18
2018-04-15T05:51:43.466Z,98.08
2018-04-15T05:52:45.302Z,97.89
2018-04-15T05:53:45.827Z,97.32
2018-04-15T05:54:44.027Z,97.03
2018-04-15T05:55:44.237Z,96.65
2018-04-15T05:56:44.453Z,96.75
2018-04-15T05:57:44.652Z,96.46
2018-04-15T05:58:44.858Z,96.46
2018-04-15T05:59:45.083Z,96.46
2018-04-15T06:00:45.301Z,95.75
2018-04-15T06:01:45.505Z,95.65
2018-04-15T06:02:45.723Z,95.27
2018-04-15T06:03:45.924Z,95.27
2018-04-15T06:04:46.136Z,94.89
2018-04-15T06:05:46.352Z,94.51
2018-04-15T06:06:49.295Z,94.51
2018-04-15T06:07:46.769Z,93.84
2018-04-15T06:08:46.977Z,93.55
2018-04-15T06:09:48.821Z,93.74
2018-04-15T06:10:47.395Z,93.74
2018-04-15T06:11:47.602Z,93.84
2018-04-15T06:12:47.807Z,93.93
2018-04-15T06:13:48.026Z,94.07
2018-04-15T06:14:48.233Z,93.88
2018-04-15T06:15:48.440Z,93.88
2018-04-15T06:16:48.658Z,94.17
2018-04-15T06:17:48.865Z,94.07
2018-04-15T06:18:49.082Z,93.98
2018-04-15T06:19:49.307Z,93.98
2018-04-15T06:20:49.501Z,93.41
2018-04-15T06:21:49.717Z,93.51
2018-04-15T06:22:49.930Z,93.60
2018-04-15T06:23:50.143Z,93.51
2018-04-15T06:24:50.366Z,93.31
2018-04-15T06:25:52.301Z,93.88
2018-04-15T06:26:50.783Z,93.60
2018-04-15T06:27:50.993Z,94.12
2018-04-15T06:28:51.199Z,93.84
2018-04-15T06:29:51.413Z,94.32
2018-04-15T06:30:51.639Z,94.60
2018-04-15T06:31:54.797Z,94.98
2018-04-15T06:32:52.028Z,94.89
2018-04-15T06:33:52.208Z,95.75
2018-04-15T06:34:52.416Z,95.08
2018-04-15T06:35:52.640Z,95.46
2018-04-15T06:36:52.871Z,95.65
2018-04-15T06:37:54.792Z,95.08
2018-04-15T06:38:53.261Z,95.12
2018-04-15T06:39:53.477Z,95.03
2018-04-15T06:40:53.697Z,94.65
2018-04-15T06:41:55.793Z,94.46
2018-04-15T06:42:54.121Z,93.88
2018-04-15T06:43:56.292Z,94.07
2018-04-15T06:44:54.518Z,93.88
2018-04-15T06:45:54.743Z,93.79
2018-04-15T06:46:54.962Z,94.07
2018-04-15T06:47:55.181Z,94.07
2018-04-15T06:48:55.401Z,93.22
2018-04-15T06:49:55.595Z,93.41
2018-04-15T06:50:55.811Z,93.17
2018-04-15T06:51:57.797Z,93.07
2018-04-15T06:52:56.257Z,92.97
2018-04-15T06:53:58.292Z,92.69
2018-04-15T06:54:56.624Z,93.07
2018-04-15T06:55:58.802Z,92.50
2018-04-15T06:56:58.811Z,91.74
2018-04-15T06:57:57.143Z,91.64
2018-04-15T06:58:57.383Z,90.97
2018-04-15T06:59:57.577Z,91.21
2018-04-15T07:00:57.792Z,90.73
2018-04-15T07:01:57.994Z,91.21
2018-04-15T07:02:58.215Z,91.21
2018-04-15T07:03:58.418Z,90.73
2018-04-15T07:05:02.293Z,90.54
2018-04-15T07:05:58.761Z,90.45
2018-04-15T07:06:58.987Z,89.87
2018-04-15T07:07:59.191Z,89.59
2018-04-15T07:09:01.296Z,90.06
2018-04-15T07:09:59.636Z,89.87
2018-04-15T07:10:59.853Z,89.78
2018-04-15T07:12:02.808Z,90.06
2018-04-15T07:13:00.271Z,89.25
2018-04-15T07:14:00.494Z,89.53
2018-04-15T07:15:00.701Z,89.15
2018-04-15T07:16:02.793Z,88.48
2018-04-15T07:17:01.144Z,88.87
2018-04-15T07:18:01.361Z,88.29
2018-04-15T07:19:03.297Z,87.53
2018-04-15T07:20:01.755Z,86.96
2018-04-15T07:21:01.958Z,86.57
2018-04-15T07:22:02.179Z,86.86
2018-04-15T07:23:02.381Z,86.76
2018-04-15T07:24:04.295Z,86.29
2018-04-15T07:25:02.769Z,86.19
2018-04-15T07:26:02.975Z,86.19
2018-04-15T07:27:03.179Z,86.29
2018-04-15T07:28:05.296Z,86.96
2018-04-15T07:29:03.509Z,87.43
2018-04-15T07:30:03.729Z,87.43
2018-04-15T07:31:03.946Z,87.05
2018-04-15T07:32:04.147Z,87.15
2018-04-15T07:33:04.365Z,87.53
2018-04-15T07:34:04.601Z,88.15
2018-04-15T07:35:06.802Z,88.48
2018-04-15T07:36:05.031Z,88.68
2018-04-15T07:37:05.237Z,88.06
2018-04-15T07:38:07.295Z,88.63
2018-04-15T07:39:07.295Z,88.96
2018-04-15T07:40:05.770Z,88.10
2018-04-15T07:41:05.991Z,87.43
2018-04-15T07:42:07.798Z,87.43
2018-04-15T07:43:06.393Z,87.34
2018-04-15T07:44:10.295Z,84.95
2018-04-15T07:45:06.771Z,85.09
2018-04-15T07:46:06.999Z,84.23
2018-04-15T07:47:07.224Z,83.17
2018-04-15T07:48:07.442Z,83.65
2018-04-15T07:49:07.654Z,82.35
2018-04-15T07:50:07.868Z,82.45
2018-04-15T07:51:08.088Z,81.68
2018-04-15T07:52:08.310Z,80.82
2018-04-15T07:53:10.300Z,80.88
2018-04-15T07:54:08.750Z,81.36
2018-04-15T07:55:10.799Z,81.55
2018-04-15T07:56:09.134Z,82.51
2018-04-15T07:57:09.338Z,82.64
2018-04-15T07:58:09.559Z,81.78
2018-04-15T07:59:11.299Z,81.40
2018-04-15T08:00:11.030Z,80.35
2018-04-15T08:01:10.248Z,80.73
2018-04-15T08:02:10.447Z,81.92
2018-04-15T08:03:10.685Z,81.25
2018-04-15T08:04:10.895Z,80.67
2018-04-15T08:05:11.116Z,80.38
2018-04-15T08:06:13.307Z,80.38
2018-04-15T08:07:11.536Z,79.52
2018-04-15T08:08:11.762Z,79.96
2018-04-15T08:09:11.961Z,80.29
2018-04-15T08:10:12.170Z,80.19
2018-04-15T08:11:12.392Z,80.16
2018-04-15T08:12:12.605Z,80.63
2018-04-15T08:13:12.816Z,81.49
2018-04-15T08:14:14.806Z,81.30
2018-04-15T08:15:13.267Z,80.82
2018-04-15T08:16:13.479Z,80.44
2018-04-15T08:17:15.311Z,80.29
2018-04-15T08:18:13.886Z,79.62
2018-04-15T08:19:14.122Z,80.10
2018-04-15T08:20:18.305Z,80.00
2018-04-15T08:21:16.297Z,80.54
2018-04-15T08:22:16.301Z,81.88
2018-04-15T08:23:16.300Z,82.64
2018-04-15T08:24:14.881Z,82.54
2018-04-15T08:25:15.146Z,82.17
2018-04-15T08:26:15.312Z,82.07
2018-04-15T08:27:15.519Z,82.54
2018-04-15T08:28:15.739Z,83.27
2018-04-15T08:29:18.799Z,84.03
2018-04-15T08:30:16.143Z,84.23
2018-04-15T08:31:16.354Z,84.32
2018-04-15T08:32:16.568Z,85.09
2018-04-15T08:33:18.309Z,84.70
2018-04-15T08:34:17.012Z,85.38
2018-04-15T08:35:17.258Z,85.66
2018-04-15T08:36:17.453Z,85.28
2018-04-15T08:37:17.675Z,85.13
2018-04-15T08:38:17.894Z,83.69
2018-04-15T08:39:18.112Z,84.08
2018-04-15T08:40:18.335Z,82.83
2018-04-15T08:41:18.546Z,81.82
2018-04-15T08:42:18.770Z,81.92
2018-04-15T08:43:21.368Z,80.29
2018-04-15T08:44:19.211Z,80.24
2018-04-15T08:45:19.425Z,79.75
2018-04-15T08:46:19.645Z,79.75
2018-04-15T08:47:21.812Z,79.75
2018-04-15T08:48:20.025Z,79.70
2018-04-15T08:49:20.237Z,79.22
2018-04-15T08:50:21.465Z,78.17
2018-04-15T08:51:20.667Z,78.36
2018-04-15T08:52:20.884Z,78.15
2018-04-15T08:53:21.102Z,78.25
2018-04-15T08:54:21.315Z,76.81
2018-04-15T08:55:21.543Z,76.90
2018-04-15T08:56:21.751Z,76.23
2018-04-15T08:57:21.966Z,75.56
2018-04-15T08:58:22.181Z,77.53
2018-04-15T08:59:25.306Z,78.88
2018-04-15T09:00:22.533Z,77.48
2018-04-15T09:01:22.755Z,75.75
2018-04-15T09:02:22.971Z,75.46
2018-04-15T09:03:23.187Z,75.62
2018-04-15T09:04:23.397Z,75.14
2018-04-15T09:05:23.610Z,74.76
2018-04-15T09:06:23.833Z,74.51
2018-04-15T09:07:24.045Z,73.74
2018-04-15T09:08:24.272Z,73.55
2018-04-15T09:09:24.500Z,73.91
2018-04-15T09:10:24.718Z,72.91
2018-04-15T09:11:24.939Z,72.63
2018-04-15T09:12:25.170Z,71.86
2018-04-15T09:13:26.639Z,72.14
2018-04-15T09:14:27.320Z,73.04
2018-04-15T09:15:25.797Z,71.95
2018-04-15T09:16:27.803Z,71.93
2018-04-15T09:17:26.156Z,70.81
2018-04-15T09:18:28.305Z,69.50
2018-04-15T09:19:26.535Z,66.49
2018-04-15T09:20:26.748Z,65.20
2018-04-15T09:21:26.962Z,64.18
2018-04-15T09:22:27.192Z,62.51
2018-04-15T09:23:27.446Z,62.09
2018-04-15T09:24:27.643Z,62.96
2018-04-15T09:25:30.807Z,62.54
2018-04-15T09:26:31.806Z,64.66
2018-04-15T09:27:28.160Z,65.94
2018-04-15T09:28:36.307Z,64.18
2018-04-15T09:29:29.532Z,63.02
2018-04-15T09:30:29.763Z,63.92
2018-04-15T09:31:28.975Z,63.95
2018-04-15T09:32:29.235Z,62.03
2018-04-15T09:33:37.303Z,61.65
2018-04-15T09:34:29.645Z,61.55
2018-04-15T09:35:37.874Z,60.97
2018-04-15T09:36:30.034Z,60.20
2018-04-15T09:37:30.265Z,59.72
2018-04-15T09:38:34.353Z,60.65
2018-04-15T09:39:51.715Z,63.70
2018-04-15T09:40:30.918Z,63.64
2018-04-15T09:41:33.803Z,60.94
2018-04-15T09:42:31.324Z,62.67
2018-04-15T09:43:32.267Z,61.96
2018-04-15T09:44:35.309Z,62.25
2018-04-15T09:45:31.815Z,60.71
2018-04-15T09:46:31.938Z,59.39
2018-04-15T09:47:35.822Z,58.62
2018-04-15T09:48:34.297Z,58.59
2018-04-15T09:49:34.342Z,59.48
2018-04-15T09:50:32.692Z,57.17
2018-04-15T09:53:04.737Z,60.58
2018-04-15T09:54:05.521Z,59.27
2018-04-15T09:55:05.120Z,59.04
2018-04-15T09:56:05.349Z,60.36
2018-04-15T09:57:05.540Z,60.00
2018-04-15T09:58:10.647Z,59.27
2018-04-15T09:59:07.555Z,57.53
2018-04-15T10:00:08.806Z,57.40
2018-04-15T10:01:27.253Z,58.47
2018-04-15T10:02:07.501Z,55.79
2018-04-15T10:03:06.633Z,57.92
2018-04-15T10:04:08.588Z,56.21
2018-04-15T10:05:09.536Z,55.15
2018-04-15T10:06:08.529Z,55.34
2018-04-15T10:07:07.254Z,56.21
2018-04-15T10:08:09.087Z,54.16
2018-04-15T10:09:09.546Z,54.93
2018-04-15T10:10:09.494Z,53.99
2018-04-15T10:11:08.127Z,55.82
2018-04-15T10:12:10.049Z,55.63
2018-04-15T10:13:12.440Z,55.27
2018-04-15T10:14:20.535Z,54.02
2018-04-15T10:15:10.555Z,53.01
2018-04-15T10:16:10.538Z,53.27
2018-04-15T10:17:09.263Z,52.79
2018-04-15T10:18:10.526Z,52.40
2018-04-15T10:19:10.723Z,52.33
2018-04-15T10:20:09.839Z,51.53
2018-04-15T10:21:16.052Z,53.25
2018-04-15T10:22:10.301Z,53.03
2018-04-15T10:23:12.035Z,52.01
2018-04-15T10:24:15.502Z,54.18
2018-04-15T10:25:12.539Z,54.40
2018-04-15T10:26:11.065Z,53.05
2018-04-15T10:27:13.049Z,54.94
2018-04-15T10:28:13.035Z,53.92
2018-04-15T10:29:15.547Z,52.36
2018-04-15T10:30:19.542Z,49.22
2018-04-15T10:31:12.159Z,49.95
2018-04-15T10:32:14.033Z,52.36
2018-04-15T10:33:14.034Z,52.81
2018-04-15T10:34:12.643Z,51.78
2018-04-15T10:35:16.555Z,51.46
2018-04-15T10:36:14.553Z,49.55
2018-04-15T10:37:17.033Z,49.37
2018-04-15T10:38:15.211Z,50.13
2018-04-15T10:39:15.554Z,52.00
2018-04-15T10:40:13.883Z,49.49
2018-04-15T10:41:30.037Z,49.39
2018-04-15T10:42:21.038Z,49.60
2018-04-15T10:43:15.157Z,50.86
2018-04-15T10:44:16.534Z,48.83
2018-04-15T10:45:16.552Z,47.99
2018-04-15T10:46:14.925Z,47.52
2018-04-15T10:47:16.000Z,46.02
2018-04-15T10:48:20.039Z,44.40
2018-04-15T10:49:17.042Z,43.72
2018-04-15T10:50:15.632Z,41.37
2018-04-15T10:51:18.540Z,43.77
2018-04-15T10:52:16.041Z,42.90
2018-04-15T10:53:16.305Z,42.34
2018-04-15T10:54:18.051Z,41.58
2018-04-15T10:55:18.540Z,40.44
2018-04-15T10:56:18.582Z,38.91
2018-04-15T10:57:16.938Z,39.94
2018-04-15T10:58:23.259Z,40.01
2018-04-15T10:59:21.037Z,38.29
2018-04-15T11:00:29.557Z,39.86
2018-04-15T11:01:18.830Z,38.73
2018-04-15T11:02:20.506Z,37.49
2018-04-15T11:03:30.042Z,35.76
2018-04-15T11:04:20.044Z,34.72
2018-04-15T11:05:18.430Z,36.33
2018-04-15T11:06:20.064Z,37.74
2018-04-15T11:07:21.561Z,38.13
2018-04-15T11:08:19.082Z,36.79
2018-04-15T11:09:21.047Z,37.10
2018-04-15T11:10:20.491Z,35.57
2018-04-15T11:11:22.540Z,34.95
2018-04-15T11:12:19.753Z,34.56
2018-04-15T11:13:22.558Z,36.00
2018-04-15T11:14:20.182Z,38.29
2018-04-15T11:15:22.036Z,37.90
2018-04-15T11:16:25.091Z,38.40
2018-04-15T11:17:22.550Z,39.65
2018-04-15T11:18:20.923Z,39.92
2018-04-15T11:19:23.049Z,39.04
2018-04-15T11:20:21.308Z,40.86
2018-04-15T11:21:21.539Z,41.60
2018-04-15T11:22:23.567Z,40.83
2018-04-15T11:23:25.539Z,42.16
2018-04-15T11:24:24.041Z,41.70
2018-04-15T11:25:26.055Z,39.86
2018-04-15T11:26:24.067Z,40.25
2018-04-15T11:27:26.540Z,40.34
2018-04-15T11:28:24.538Z,40.88
2018-04-15T11:29:24.551Z,41.39
2018-04-15T11:30:25.056Z,41.94
2018-04-15T11:31:25.037Z,42.04
2018-04-15T11:32:27.076Z,42.12
2018-04-15T11:33:23.799Z,43.37
2018-04-15T11:34:25.548Z,43.57
2018-04-15T11:35:24.168Z,42.87
2018-04-15T11:36:26.043Z,43.08
2018-04-15T11:37:24.576Z,44.46
2018-04-15T11:38:26.871Z,43.32
2018-04-15T11:39:24.908Z,43.20
2018-04-15T11:40:25.129Z,43.30
2018-04-15T11:41:27.045Z,43.78
2018-04-15T11:42:29.039Z,43.40
2018-04-15T11:43:27.548Z,44.36
2018-04-15T11:44:27.540Z,44.46
2018-04-15T11:45:29.043Z,44.77
2018-04-15T11:46:28.041Z,44.38
2018-04-15T11:47:28.057Z,43.41
2018-04-15T11:48:28.805Z,42.93
2018-04-15T11:49:28.600Z,43.23
2018-04-15T11:50:28.557Z,43.51
2018-04-15T11:51:27.152Z,43.20
2018-04-15T11:52:27.642Z,42.55
2018-04-15T11:53:29.547Z,42.35
2018-04-15T11:54:27.776Z,42.07
2018-04-15T11:55:27.895Z,42.91
2018-04-15T11:56:36.055Z,43.23
2018-04-15T11:57:30.043Z,43.23
2018-04-15T11:58:30.101Z,42.96
2018-04-15T11:59:31.075Z,41.89
2018-04-15T12:00:28.645Z,40.34
2018-04-15T12:01:38.408Z,40.05
2018-04-15T12:02:32.072Z,40.32
2018-04-15T12:03:30.847Z,40.44
2018-04-15T12:04:30.854Z,39.74
2018-04-15T12:05:31.598Z,40.05
2018-04-15T12:06:32.150Z,38.39
2018-04-15T12:07:32.361Z,39.84
2018-04-15T12:08:31.566Z,39.28
2018-04-15T12:09:32.068Z,38.64
2018-04-15T12:10:30.292Z,37.30
2018-04-15T12:11:30.541Z,36.91
2018-04-15T12:12:32.550Z,34.86
2018-04-15T12:13:30.891Z,35.04
2018-04-15T12:14:31.099Z,35.70
2018-04-15T12:15:34.048Z,38.20
2018-04-15T12:16:33.046Z,38.58
2018-04-15T12:17:31.639Z,38.56
2018-04-15T12:18:31.864Z,39.49
2018-04-15T12:19:34.151Z,39.97
2018-04-15T12:20:34.084Z,39.69
2018-04-15T12:21:34.044Z,41.23
2018-04-15T12:22:40.542Z,42.18
2018-04-15T12:23:36.565Z,42.75
2018-04-15T12:24:34.552Z,43.45
2018-04-15T12:25:34.159Z,41.61
2018-04-15T12:26:33.389Z,41.52
2018-04-15T12:27:35.733Z,41.13
2018-04-15T12:28:40.102Z,42.08
2018-04-15T12:29:37.555Z,42.48
2018-04-15T12:30:36.085Z,41.88
2018-04-15T12:31:34.300Z,43.14
2018-04-15T12:32:35.928Z,42.94
2018-04-15T12:33:34.765Z,41.96
2018-04-15T12:34:35.987Z,42.18
2018-04-15T12:35:37.119Z,41.57
2018-04-15T12:36:35.390Z,41.78
2018-04-15T12:37:35.609Z,42.46
2018-04-15T12:38:37.561Z,42.27
2018-04-15T12:39:38.692Z,42.36
2018-04-15T12:40:39.053Z,43.04
2018-04-15T12:41:36.516Z,43.72
2018-04-15T12:42:44.560Z,42.00
2018-04-15T12:43:37.889Z,41.98
2018-04-15T12:44:37.110Z,42.36
2018-04-15T12:45:39.047Z,41.98
2018-04-15T12:46:37.581Z,43.14
2018-04-15T12:47:37.776Z,43.14
2018-04-15T12:48:37.971Z,40.92
2018-04-15T12:49:40.179Z,40.34
2018-04-15T12:50:38.514Z,41.02
2018-04-15T12:51:41.523Z,42.27
2018-04-15T12:52:40.734Z,41.50
2018-04-15T12:53:40.122Z,41.98
2018-04-15T12:54:39.633Z,42.97
2018-04-15T12:55:42.570Z,42.10
2018-04-15T12:56:41.255Z,42.10